createdAt,value
2023-03-11T00:01:28.186Z,99774.06
2023-03-11T00:03:55.987Z,99766.47
2023-03-11T00:06:23.707Z,99757.16
2023-03-11T00:08:52.339Z,99787.69
2023-03-11T00:11:22.449Z,99781.84
2023-03-11T00:13:51.550Z,99801.22
2023-03-11T00:16:19.472Z,99798.78
2023-03-11T00:18:47.302Z,99803.00
2023-03-11T00:21:17.217Z,99803.91
2023-03-11T00:23:47.503Z,99803.97
2023-03-11T00:26:15.260Z,99820.91
2023-03-11T00:28:42.940Z,99803.97
2023-03-11T00:31:14.112Z,99828.50
2023-03-11T00:33:42.005Z,99836.13
2023-03-11T00:36:22.444Z,99832.84
2023-03-11T00:38:50.241Z,99845.53
2023-03-11T00:41:18.094Z,99844.69
2023-03-11T00:43:45.888Z,99853.19
2023-03-11T00:46:15.007Z,99809.91
2023-03-11T00:48:42.861Z,99845.66
2023-03-11T00:51:14.538Z,99858.31
2023-03-11T00:53:42.866Z,99814.13
2023-03-11T00:56:12.557Z,99869.31
2023-03-11T00:58:41.550Z,99849.84
2023-03-11T01:01:09.831Z,99885.53
2023-03-11T01:03:39.688Z,99884.66
2023-03-11T01:06:07.551Z,99883.88
2023-03-11T01:08:35.558Z,99871.97
2023-03-11T01:11:04.534Z,99883.94
2023-03-11T01:13:33.516Z,99894.06
2023-03-11T01:16:01.365Z,99895.00
2023-03-11T01:18:29.551Z,99888.19
2023-03-11T01:20:58.650Z,99912.84
2023-03-11T01:23:26.360Z,99907.75
2023-03-11T01:25:54.061Z,99908.66
2023-03-11T01:28:21.726Z,99921.38
2023-03-11T01:30:49.543Z,99923.91
2023-03-11T01:33:20.522Z,99929.78
2023-03-11T01:35:49.338Z,99927.28
2023-03-11T01:38:18.542Z,99929.84
2023-03-11T01:40:48.889Z,99906.94
2023-03-11T01:43:54.526Z,99942.59
2023-03-11T01:46:24.763Z,99935.66
2023-03-11T01:48:53.814Z,99922.16
2023-03-11T01:51:27.071Z,99934.88
2023-03-11T01:53:57.666Z,99933.19
2023-03-11T01:56:25.707Z,99934.00
2023-03-11T01:58:56.023Z,99943.41
2023-03-11T02:01:25.068Z,99887.34
2023-03-11T02:03:53.070Z,99947.75
2023-03-11T02:06:24.461Z,99958.84
2023-03-11T02:08:52.451Z,99975.03
2023-03-11T02:11:24.910Z,99987.78
2023-03-11T02:13:55.730Z,99991.16
2023-03-11T02:16:23.654Z,99992.88
2023-03-11T02:18:51.780Z,99994.50
2023-03-11T02:21:25.141Z,99993.72
2023-03-11T02:24:00.943Z,99991.16
2023-03-11T02:26:36.103Z,99986.06
2023-03-11T02:29:08.786Z,100004.78
2023-03-11T02:31:41.156Z,99964.78
2023-03-11T02:34:19.883Z,100009.91
2023-03-11T02:36:47.915Z,100006.50
2023-03-11T02:39:15.759Z,100015.03
2023-03-11T02:41:47.253Z,100021.81
2023-03-11T02:44:17.727Z,100012.47
2023-03-11T02:46:46.402Z,100025.22
2023-03-11T02:49:15.225Z,100028.59
2023-03-11T02:51:43.016Z,100024.41
2023-03-11T02:54:10.821Z,100032.03
2023-03-11T02:56:38.746Z,100041.31
2023-03-11T02:59:06.494Z,100040.50
2023-03-11T03:01:35.596Z,100012.44
2023-03-11T03:04:03.570Z,99995.44
2023-03-11T03:06:31.485Z,100049.84
2023-03-11T03:08:59.380Z,100058.34
2023-03-11T03:11:27.364Z,100048.22
2023-03-11T03:13:55.212Z,100067.78
2023-03-11T03:16:23.056Z,100066.94
2023-03-11T03:18:52.656Z,100076.25
2023-03-11T03:21:20.385Z,100072.84
2023-03-11T03:23:48.308Z,100079.72
2023-03-11T03:26:16.378Z,100083.97
2023-03-11T03:28:44.078Z,100083.19
2023-03-11T03:31:12.671Z,100089.09
2023-03-11T03:33:40.487Z,100090.00
2023-03-11T03:36:12.452Z,100103.63
2023-03-11T03:38:40.352Z,100103.63
2023-03-11T03:41:08.299Z,100102.78
2023-03-11T03:43:36.037Z,100115.53
2023-03-11T03:46:05.925Z,100122.38
2023-03-11T03:48:34.158Z,100119.81
2023-03-11T03:51:05.440Z,100130.88
2023-03-11T03:53:36.554Z,100140.28
2023-03-11T03:56:05.079Z,100131.75
2023-03-11T03:58:33.203Z,100143.69
2023-03-11T04:01:01.234Z,100151.34
2023-03-11T04:03:29.624Z,100146.25
2023-03-11T04:06:07.567Z,100136.84
2023-03-11T04:08:37.090Z,100153.06
2023-03-11T04:11:05.157Z,100159.88
2023-03-11T04:13:33.202Z,100165.00
2023-03-11T04:16:01.123Z,100163.25
2023-03-11T04:18:28.842Z,100168.38
2023-03-11T04:20:56.576Z,100166.69
2023-03-11T04:23:24.470Z,100170.09
2023-03-11T04:25:53.531Z,100174.34
2023-03-11T04:28:21.339Z,100169.25
2023-03-11T04:30:49.131Z,100171.81
2023-03-11T04:33:17.134Z,100168.41
2023-03-11T04:35:44.998Z,100168.41
2023-03-11T04:38:12.907Z,100179.50
2023-03-11T04:40:41.104Z,100171.81
2023-03-11T04:43:10.302Z,100177.78
2023-03-11T04:45:39.596Z,100175.22
2023-03-11T04:48:07.373Z,100186.28
2023-03-11T04:50:35.259Z,100175.19
2023-03-11T04:53:03.220Z,100194.78
2023-03-11T04:55:31.284Z,100199.03
2023-03-11T04:57:59.000Z,100206.75
2023-03-11T05:00:28.386Z,100210.97
2023-03-11T05:02:56.201Z,100198.19
2023-03-11T05:05:24.033Z,100210.06
2023-03-11T05:07:51.836Z,100221.13
2023-03-11T05:10:22.588Z,100227.16
2023-03-11T05:12:50.525Z,100232.19
2023-03-11T05:15:18.592Z,100237.28
2023-03-11T05:17:47.888Z,100245.84
2023-03-11T05:20:16.595Z,100240.75
2023-03-11T05:22:44.450Z,100233.84
2023-03-11T05:25:12.238Z,100242.41
2023-03-11T05:27:40.030Z,100246.56
2023-03-11T05:30:09.267Z,100264.56
2023-03-11T05:32:37.127Z,100267.97
2023-03-11T05:35:07.257Z,100273.13
2023-03-11T05:37:35.396Z,100270.50
2023-03-11T05:40:05.758Z,100280.81
2023-03-11T05:42:33.829Z,100285.91
2023-03-11T05:45:01.939Z,100290.16
2023-03-11T05:47:29.775Z,100299.53
2023-03-11T05:49:57.603Z,100295.19
2023-03-11T05:52:26.723Z,100303.78
2023-03-11T05:54:54.507Z,100298.53
2023-03-11T05:57:22.457Z,100286.41
2023-03-11T05:59:50.154Z,100311.88
2023-03-11T06:02:18.327Z,100321.38
2023-03-11T06:04:46.147Z,100303.63
2023-03-11T06:07:15.493Z,100330.91
2023-03-11T06:09:44.698Z,100314.66
2023-03-11T06:12:12.460Z,100331.00
2023-03-11T06:14:40.222Z,100337.84
2023-03-11T06:17:08.040Z,100336.19
2023-03-11T06:19:35.815Z,100341.25
2023-03-11T06:22:03.961Z,100256.00
2023-03-11T06:24:32.026Z,100340.50
2023-03-11T06:27:01.259Z,100348.25
2023-03-11T06:29:30.104Z,100331.97
2023-03-11T06:31:57.851Z,100365.34
2023-03-11T06:34:25.562Z,100357.66
2023-03-11T06:36:54.809Z,100368.75
2023-03-11T06:39:22.689Z,100371.34
2023-03-11T06:41:50.436Z,100372.19
2023-03-11T06:44:19.622Z,100376.44
2023-03-11T06:46:47.863Z,100379.09
2023-03-11T06:49:15.659Z,100387.63
2023-03-11T06:51:43.521Z,100391.84
2023-03-11T06:54:12.240Z,100390.09
2023-03-11T06:56:39.982Z,100370.47
2023-03-11T06:59:07.717Z,100403.69
2023-03-11T07:01:36.987Z,100407.00
2023-03-11T07:04:04.864Z,100404.47
2023-03-11T07:06:32.771Z,100398.63
2023-03-11T07:09:00.497Z,100391.84
2023-03-11T07:11:29.118Z,100399.38
2023-03-11T07:13:57.008Z,100406.13
2023-03-11T07:16:26.541Z,100415.84
2023-03-11T07:18:56.666Z,100412.94
2023-03-11T07:21:24.543Z,100416.31
2023-03-11T07:23:54.700Z,100425.97
2023-03-11T07:26:22.886Z,100418.84
2023-03-11T07:28:50.668Z,100414.53
2023-03-11T07:31:21.180Z,100415.28
2023-03-11T07:33:49.165Z,100426.06
2023-03-11T07:36:20.016Z,100398.91
2023-03-11T07:38:48.464Z,100450.09
2023-03-11T07:41:17.040Z,100457.88
2023-03-11T07:43:45.139Z,100441.69
2023-03-11T07:46:16.572Z,100443.44
2023-03-11T07:48:44.553Z,100453.28
2023-03-11T07:51:14.188Z,100435.63
2023-03-11T07:53:43.667Z,100454.00
2023-03-11T07:56:13.297Z,100459.63
2023-03-11T07:58:42.239Z,100462.38
2023-03-11T08:01:13.224Z,100447.47
2023-03-11T08:03:41.074Z,100468.44
2023-03-11T08:06:13.569Z,100425.06
2023-03-11T08:08:41.414Z,100466.38
2023-03-11T08:11:11.153Z,100469.38
2023-03-11T08:13:38.810Z,100482.22
2023-03-11T08:16:08.181Z,100494.84
2023-03-11T08:18:36.545Z,100502.44
2023-03-11T08:21:06.533Z,100507.13
2023-03-11T08:23:34.537Z,100501.06
2023-03-11T08:26:04.537Z,100490.16
2023-03-11T08:28:34.305Z,100507.56
2023-03-11T08:31:02.559Z,100505.25
2023-03-11T08:33:30.652Z,100492.03
2023-03-11T08:35:58.520Z,100503.63
2023-03-11T08:38:26.379Z,100492.06
2023-03-11T08:40:54.119Z,100495.59
2023-03-11T08:43:21.835Z,100479.41
2023-03-11T08:45:51.224Z,100503.47
2023-03-11T08:48:19.107Z,100484.94
2023-03-11T08:50:53.847Z,100505.44
2023-03-11T08:53:23.062Z,100510.03
2023-03-11T08:55:51.505Z,100501.81
2023-03-11T08:58:19.536Z,100502.59
2023-03-11T09:00:47.292Z,100508.88
2023-03-11T09:03:16.494Z,100502.66
2023-03-11T09:05:44.248Z,100513.88
2023-03-11T09:08:12.034Z,100506.91
2023-03-11T09:10:39.945Z,100504.09
2023-03-11T09:13:07.907Z,100507.03
2023-03-11T09:15:36.466Z,100528.69
2023-03-11T09:18:04.344Z,100537.06
2023-03-11T09:20:33.498Z,100553.09
2023-03-11T09:23:01.270Z,100561.47
2023-03-11T09:25:29.233Z,100565.47
2023-03-11T09:27:57.048Z,100577.06
2023-03-11T09:30:24.889Z,100588.38
2023-03-11T09:32:52.864Z,100589.44
2023-03-11T09:35:20.762Z,100590.47
2023-03-11T09:37:50.013Z,100594.78
2023-03-11T09:40:20.906Z,100608.09
2023-03-11T09:42:58.160Z,100612.00
2023-03-11T09:45:29.065Z,100616.94
2023-03-11T09:48:10.481Z,100622.94
2023-03-11T09:50:46.426Z,100627.69
2023-03-11T09:53:27.307Z,100628.31
2023-03-11T09:55:57.389Z,100635.94
2023-03-11T09:58:37.624Z,100638.97
2023-03-11T10:01:16.171Z,100648.78
2023-03-11T10:03:45.505Z,100652.25
2023-03-11T10:06:17.022Z,100654.28
2023-03-11T10:08:49.846Z,100656.47
2023-03-11T10:11:29.042Z,100657.66
2023-03-11T10:14:06.797Z,100665.22
2023-03-11T10:16:43.773Z,100650.06
2023-03-11T10:19:22.793Z,100629.84
2023-03-11T10:22:00.174Z,100667.84
2023-03-11T10:24:48.665Z,100665.59
2023-03-11T10:27:20.503Z,100661.81
2023-03-11T10:29:57.170Z,100669.50
2023-03-11T10:32:31.107Z,100673.78
2023-03-11T10:35:04.441Z,100666.59
2023-03-11T10:37:48.920Z,100668.53
2023-03-11T10:40:27.205Z,100677.13
2023-03-11T10:42:58.290Z,100675.75
2023-03-11T10:45:26.996Z,100690.16
2023-03-11T10:47:57.850Z,100677.09
2023-03-11T10:50:25.689Z,100675.63
2023-03-11T10:53:09.281Z,100665.66
2023-03-11T10:55:47.479Z,100684.31
2023-03-11T10:58:17.876Z,100692.38
2023-03-11T11:00:46.479Z,100694.41
2023-03-11T11:03:22.219Z,100681.97
2023-03-11T11:06:05.369Z,100678.00
2023-03-11T11:08:34.221Z,100693.47
2023-03-11T11:11:05.619Z,100686.75
2023-03-11T11:13:35.514Z,100701.66
2023-03-11T11:16:07.019Z,100693.03
2023-03-11T11:18:36.650Z,100688.69
2023-03-11T11:21:07.861Z,100695.03
2023-03-11T11:23:42.554Z,100691.69
2023-03-11T11:26:19.249Z,100690.56
2023-03-11T11:28:47.125Z,100679.81
2023-03-11T11:31:24.784Z,100604.25
2023-03-11T11:33:54.530Z,100685.88
2023-03-11T11:36:25.853Z,100696.84
2023-03-11T11:38:56.513Z,100695.94
2023-03-11T11:41:27.304Z,100691.03
2023-03-11T11:43:56.578Z,100700.50
2023-03-11T11:46:31.126Z,100693.41
2023-03-11T11:49:06.718Z,100685.47
2023-03-11T11:51:40.271Z,100685.25
2023-03-11T11:54:17.619Z,100681.09
2023-03-11T11:56:47.109Z,100692.13
2023-03-11T11:59:18.783Z,100679.66
2023-03-11T12:01:58.235Z,100695.50
2023-03-11T12:04:39.506Z,100687.91
2023-03-11T12:07:25.884Z,100686.78
2023-03-11T12:10:09.789Z,100681.84
2023-03-11T12:12:55.414Z,100698.44
2023-03-11T12:15:28.308Z,100690.41
2023-03-11T12:18:03.476Z,100678.13
2023-03-11T12:20:37.269Z,100681.50
2023-03-11T12:23:20.866Z,100690.50
2023-03-11T12:26:03.363Z,100681.13
2023-03-11T12:28:42.371Z,100697.13
2023-03-11T12:31:12.205Z,100637.13
2023-03-11T12:33:43.619Z,100676.06
2023-03-11T12:36:24.948Z,100690.88
2023-03-11T12:38:54.908Z,100688.81
2023-03-11T12:41:33.622Z,100686.94
2023-03-11T12:44:05.367Z,100684.47
2023-03-11T12:47:09.745Z,100694.16
2023-03-11T12:49:39.087Z,100694.56
2023-03-11T12:52:19.126Z,100685.44
2023-03-11T12:54:48.179Z,100697.19
2023-03-11T12:57:32.903Z,100702.13
2023-03-11T13:00:18.693Z,100694.63
2023-03-11T13:03:24.455Z,100699.81
2023-03-11T13:05:58.441Z,100659.44
2023-03-11T13:08:28.355Z,100690.28
2023-03-11T13:10:57.410Z,100653.53
2023-03-11T13:13:36.820Z,100700.44
2023-03-11T13:16:43.708Z,100701.34
2023-03-11T13:19:36.746Z,100710.81
2023-03-11T13:22:22.588Z,100688.16
2023-03-11T13:24:52.202Z,100708.19
2023-03-11T13:27:33.251Z,100687.72
2023-03-11T13:30:10.205Z,100702.03
2023-03-11T13:32:55.248Z,100693.31
2023-03-11T13:35:36.335Z,100703.09
2023-03-11T13:38:21.936Z,100693.31
2023-03-11T13:40:52.540Z,100676.97
2023-03-11T13:43:23.480Z,100690.69
2023-03-11T13:45:55.884Z,100689.63
2023-03-11T13:48:30.017Z,100699.53
2023-03-11T13:51:01.328Z,100698.47
2023-03-11T13:53:33.075Z,100699.69
2023-03-11T13:56:00.882Z,100690.84
2023-03-11T13:58:29.949Z,100708.91
2023-03-11T14:00:59.849Z,100707.44
2023-03-11T14:03:34.220Z,100683.19
2023-03-11T14:06:04.519Z,100707.78
2023-03-11T14:08:34.943Z,100702.72
2023-03-11T14:11:04.462Z,100702.81
2023-03-11T14:13:34.271Z,100706.72
2023-03-11T14:16:06.945Z,100704.72
2023-03-11T14:18:42.182Z,100687.47
2023-03-11T14:21:15.655Z,100677.75
2023-03-11T14:23:45.873Z,100706.25
2023-03-11T14:26:16.794Z,100704.53
2023-03-11T14:28:49.548Z,100674.34
2023-03-11T14:31:31.916Z,100676.91
2023-03-11T14:34:06.718Z,100709.66
2023-03-11T14:36:44.630Z,100718.28
2023-03-11T14:39:30.594Z,100703.69
2023-03-11T14:42:05.355Z,100703.34
2023-03-11T14:44:38.526Z,100683.72
2023-03-11T14:47:12.457Z,100729.91
2023-03-11T14:49:43.286Z,100723.69
2023-03-11T14:52:19.834Z,100716.69
2023-03-11T14:54:49.520Z,100730.41
2023-03-11T14:57:23.617Z,100727.78
2023-03-11T14:59:54.295Z,100726.78
2023-03-11T15:02:43.488Z,100737.97
2023-03-11T15:05:22.285Z,100730.56
2023-03-11T15:07:51.887Z,100737.78
2023-03-11T15:10:19.702Z,100730.63
2023-03-11T15:12:49.896Z,100642.75
2023-03-11T15:15:27.059Z,100725.00
2023-03-11T15:17:56.052Z,100723.63
2023-03-11T15:20:33.570Z,100724.63
2023-03-11T15:23:03.851Z,100702.06
2023-03-11T15:25:34.484Z,100724.16
2023-03-11T15:28:24.321Z,100721.94
2023-03-11T15:30:52.644Z,100714.38
2023-03-11T15:33:32.403Z,100709.94
2023-03-11T15:36:01.641Z,100700.25
2023-03-11T15:38:29.393Z,100702.22
2023-03-11T15:41:00.482Z,100710.63
2023-03-11T15:43:30.649Z,100717.91
2023-03-11T15:46:00.260Z,100692.03
2023-03-11T15:48:29.867Z,100726.19
2023-03-11T15:50:59.256Z,100717.75
2023-03-11T15:53:29.967Z,100730.44
2023-03-11T15:56:07.323Z,100734.06
2023-03-11T15:58:37.404Z,100743.50
2023-03-11T16:01:05.300Z,100763.59
2023-03-11T16:03:33.210Z,100764.56
2023-03-11T16:06:00.997Z,100782.63
2023-03-11T16:08:30.167Z,100779.19
2023-03-11T16:10:58.079Z,100789.50
2023-03-11T16:13:26.143Z,100750.13
2023-03-11T16:15:54.066Z,100768.09
2023-03-11T16:18:21.864Z,100784.34
2023-03-11T16:20:53.186Z,100776.66
2023-03-11T16:23:24.082Z,100768.94
2023-03-11T16:25:56.911Z,100780.94
2023-03-11T16:28:24.640Z,100776.53
2023-03-11T16:30:52.665Z,100786.84
2023-03-11T16:33:20.733Z,100784.25
2023-03-11T16:35:48.571Z,100799.69
2023-03-11T16:38:17.686Z,100796.19
2023-03-11T16:40:45.456Z,100810.00
2023-03-11T16:43:15.419Z,100813.41
2023-03-11T16:45:43.127Z,100761.94
2023-03-11T16:48:10.846Z,100819.22
2023-03-11T16:50:38.593Z,100810.59
2023-03-11T16:53:06.301Z,100803.81
2023-03-11T16:55:34.161Z,100823.22
2023-03-11T16:58:01.951Z,100828.69
2023-03-11T17:00:31.292Z,100808.72
2023-03-11T17:02:59.080Z,100814.81
2023-03-11T17:05:27.141Z,100789.69
2023-03-11T17:08:00.073Z,100805.97
2023-03-11T17:10:28.351Z,100812.91
2023-03-11T17:12:56.069Z,100814.66
2023-03-11T17:15:23.870Z,100842.22
2023-03-11T17:17:53.060Z,100826.34
2023-03-11T17:20:21.757Z,100841.91
2023-03-11T17:22:49.930Z,100835.84
2023-03-11T17:25:17.987Z,100830.47
2023-03-11T17:27:46.279Z,100835.84
2023-03-11T17:30:19.422Z,100842.69
2023-03-11T17:32:53.794Z,100846.06
2023-03-11T17:35:21.628Z,100839.19
2023-03-11T17:37:49.475Z,100829.75
2023-03-11T17:40:17.375Z,100846.88
2023-03-11T17:42:45.208Z,100828.84
2023-03-11T17:45:14.270Z,100845.22
2023-03-11T17:47:41.980Z,100827.41
2023-03-11T17:50:13.083Z,100847.06
2023-03-11T17:52:40.851Z,100851.31
2023-03-11T17:55:09.615Z,100839.19
2023-03-11T17:57:45.002Z,100844.44
2023-03-11T18:00:14.881Z,100840.66
2023-03-11T18:02:43.120Z,100853.03
2023-03-11T18:05:12.434Z,100856.34
2023-03-11T18:07:40.364Z,100853.13
2023-03-11T18:10:09.417Z,100852.13
2023-03-11T18:12:37.744Z,100853.03
2023-03-11T18:15:14.319Z,100823.66
2023-03-11T18:17:42.130Z,100844.75
2023-03-11T18:20:13.542Z,100842.22
2023-03-11T18:22:44.452Z,100844.19
2023-03-11T18:25:13.958Z,100844.41
2023-03-11T18:27:42.139Z,100845.72
2023-03-11T18:30:11.816Z,100864.63
2023-03-11T18:32:39.588Z,100856.63
2023-03-11T18:35:08.173Z,100812.13
2023-03-11T18:37:37.461Z,100860.53
2023-03-11T18:40:06.980Z,100859.28
2023-03-11T18:42:35.362Z,100858.59
2023-03-11T18:45:03.255Z,100858.63
2023-03-11T18:47:35.105Z,100796.84
2023-03-11T18:50:03.391Z,100859.78
2023-03-11T18:52:31.208Z,100858.91
2023-03-11T18:55:00.312Z,100856.28
2023-03-11T18:57:28.246Z,100872.63
2023-03-11T18:59:56.020Z,100862.38
2023-03-11T19:02:23.858Z,100849.81
2023-03-11T19:04:51.689Z,100848.00
2023-03-11T19:07:19.797Z,100859.28
2023-03-11T19:09:49.753Z,100863.03
2023-03-11T19:12:20.264Z,100862.28
2023-03-11T19:14:48.181Z,100849.03
2023-03-11T19:17:18.211Z,100845.53
2023-03-11T19:19:46.286Z,100868.19
2023-03-11T19:22:14.219Z,100853.22
2023-03-11T19:24:42.366Z,100862.75
2023-03-11T19:27:10.130Z,100863.31
2023-03-11T19:29:39.365Z,100870.22
2023-03-11T19:32:07.675Z,100862.44
2023-03-11T19:34:36.226Z,100874.72
2023-03-11T19:37:04.007Z,100875.63
2023-03-11T19:39:31.872Z,100871.31
2023-03-11T19:41:59.915Z,100871.31
2023-03-11T19:44:27.733Z,100872.19
2023-03-11T19:46:56.891Z,100870.22
2023-03-11T19:49:24.696Z,100879.25
2023-03-11T19:51:53.093Z,100869.59
2023-03-11T19:54:21.167Z,100868.97
2023-03-11T19:56:49.121Z,100870.78
2023-03-11T19:59:17.241Z,100871.38
2023-03-11T20:01:45.155Z,100853.53
2023-03-11T20:04:15.575Z,100890.44
2023-03-11T20:06:44.165Z,100878.34
2023-03-11T20:09:13.229Z,100879.28
2023-03-11T20:11:41.749Z,100876.09
2023-03-11T20:14:11.530Z,100873.47
2023-03-11T20:16:39.839Z,100876.84
2023-03-11T20:19:08.441Z,100840.66
2023-03-11T20:21:40.677Z,100873.31
2023-03-11T20:24:10.112Z,100893.22
2023-03-11T20:26:38.678Z,100894.28
2023-03-11T20:29:06.794Z,100896.88
2023-03-11T20:31:34.996Z,100895.03
2023-03-11T20:34:03.626Z,100892.47
2023-03-11T20:36:33.963Z,100893.41
2023-03-11T20:39:04.685Z,100887.34
2023-03-11T20:41:37.377Z,100834.84
2023-03-11T20:44:06.857Z,100889.81
2023-03-11T20:46:34.998Z,100894.06
2023-03-11T20:49:03.705Z,100895.75
2023-03-11T20:51:31.886Z,100903.66
2023-03-11T20:53:59.835Z,100894.94
2023-03-11T20:56:29.222Z,100906.31
2023-03-11T20:59:01.006Z,100904.41
2023-03-11T21:01:31.174Z,100914.00
2023-03-11T21:04:01.508Z,100909.72
2023-03-11T21:06:35.033Z,100897.75
2023-03-11T21:09:07.433Z,100909.78
2023-03-11T21:11:36.746Z,100912.31
2023-03-11T21:14:06.101Z,100916.56
2023-03-11T21:16:37.302Z,100907.06
2023-03-11T21:19:08.408Z,100914.75
2023-03-11T21:21:36.262Z,100910.34
2023-03-11T21:24:05.145Z,100933.50
2023-03-11T21:26:32.999Z,100912.16
2023-03-11T21:29:02.370Z,100909.53
2023-03-11T21:31:33.229Z,100920.81
2023-03-11T21:34:05.004Z,100906.22
2023-03-11T21:36:33.200Z,100915.53
2023-03-11T21:39:03.455Z,100909.56
2023-03-11T21:41:32.207Z,100908.59
2023-03-11T21:44:00.587Z,100892.84
2023-03-11T21:46:31.719Z,100934.25
2023-03-11T21:49:00.982Z,100911.91
2023-03-11T21:51:29.176Z,100922.06
2023-03-11T21:53:57.646Z,100929.03
2023-03-11T21:56:27.285Z,100927.53
2023-03-11T21:58:55.175Z,100909.09
2023-03-11T22:01:23.115Z,100922.00
2023-03-11T22:03:52.510Z,100924.72
2023-03-11T22:06:20.434Z,100926.22
2023-03-11T22:08:48.521Z,100928.97
2023-03-11T22:11:19.389Z,100923.00
2023-03-11T22:13:48.826Z,100931.56
2023-03-11T22:16:16.867Z,100936.78
2023-03-11T22:18:45.282Z,100913.28
2023-03-11T22:21:15.311Z,100934.13
2023-03-11T22:23:43.304Z,100944.50
2023-03-11T22:26:11.683Z,100934.25
2023-03-11T22:28:39.459Z,100940.38
2023-03-11T22:31:08.435Z,100943.63
2023-03-11T22:33:36.262Z,100938.50
2023-03-11T22:36:05.002Z,100926.53
2023-03-11T22:38:36.787Z,100922.41
2023-03-11T22:41:07.549Z,100917.78
2023-03-11T22:43:35.700Z,100938.66
2023-03-11T22:46:04.505Z,100936.81
2023-03-11T22:48:32.903Z,100933.25
2023-03-11T22:51:00.706Z,100947.13
2023-03-11T22:53:28.738Z,100928.06
2023-03-11T22:55:57.944Z,100944.50
2023-03-11T22:58:25.704Z,100936.72
2023-03-11T23:00:53.560Z,100936.47
2023-03-11T23:03:21.481Z,100941.66
2023-03-11T23:05:49.246Z,100947.59
2023-03-11T23:08:17.612Z,100951.75
2023-03-11T23:10:47.558Z,100951.81
2023-03-11T23:13:17.120Z,100936.50
2023-03-11T23:15:46.930Z,100952.91
2023-03-11T23:18:16.692Z,100958.03
2023-03-11T23:20:45.150Z,100945.69
2023-03-11T23:23:14.099Z,100947.88
2023-03-11T23:25:42.303Z,100959.31
2023-03-11T23:28:10.163Z,100965.34
2023-03-11T23:30:41.260Z,100952.41
2023-03-11T23:33:09.355Z,100966.28
2023-03-11T23:35:41.518Z,100965.44
2023-03-11T23:38:09.682Z,100972.19
2023-03-11T23:40:37.550Z,100977.13
2023-03-11T23:43:05.565Z,100981.56
2023-03-11T23:45:33.490Z,100969.34
2023-03-11T23:48:02.607Z,100988.28
2023-03-11T23:50:30.384Z,100983.28
2023-03-11T23:52:58.222Z,100974.34
2023-03-11T23:55:25.981Z,100975.94
2023-03-11T23:57:53.722Z,100985.47
